sensor_id;sensor_type;location;lat;lon;timestamp;pressure;altitude;pressure_sealevel;temperature;humidity
6506;BME280;3286;49.858;8.768;2023-03-25T00:01:34;98284.16;;;11.64;53.58
6506;BME280;3286;49.858;8.768;2023-03-25T00:04:02;98288.97;;;11.60;53.50
6506;BME280;3286;49.858;8.768;2023-03-25T00:06:30;98319.78;;;10.83;55.63
6506;BME280;3286;49.858;8.768;2023-03-25T00:08:58;98350.38;;;10.12;58.75
6506;BME280;3286;49.858;8.768;2023-03-25T00:11:28;98371.13;;;9.16;67.03
6506;BME280;3286;49.858;8.768;2023-03-25T00:13:55;98366.88;;;9.23;66.57
6506;BME280;3286;49.858;8.768;2023-03-25T00:16:22;98364.91;;;9.50;66.23
6506;BME280;3286;49.858;8.768;2023-03-25T00:18:49;98366.56;;;9.35;66.16
6506;BME280;3286;49.858;8.768;2023-03-25T00:21:15;98372.97;;;9.32;68.64
6506;BME280;3286;49.858;8.768;2023-03-25T00:23:43;98378.81;;;8.93;67.97
6506;BME280;3286;49.858;8.768;2023-03-25T00:26:10;98367.16;;;9.12;67.98
6506;BME280;3286;49.858;8.768;2023-03-25T00:28:38;98363.53;;;9.13;67.21
6506;BME280;3286;49.858;8.768;2023-03-25T00:31:08;98361.09;;;8.68;68.29
6506;BME280;3286;49.858;8.768;2023-03-25T00:33:36;98357.66;;;9.52;65.29
6506;BME280;3286;49.858;8.768;2023-03-25T00:36:06;98354.16;;;10.02;63.11
6506;BME280;3286;49.858;8.768;2023-03-25T00:38:34;98362.91;;;9.19;64.95
6506;BME280;3286;49.858;8.768;2023-03-25T00:41:13;98359.63;;;8.05;66.57
6506;BME280;3286;49.858;8.768;2023-03-25T00:43:43;98358.09;;;8.55;66.57
6506;BME280;3286;49.858;8.768;2023-03-25T00:46:11;98360.09;;;8.61;65.77
6506;BME280;3286;49.858;8.768;2023-03-25T00:48:38;98366.06;;;9.56;62.89
6506;BME280;3286;49.858;8.768;2023-03-25T00:51:06;98363.75;;;9.78;61.75
6506;BME280;3286;49.858;8.768;2023-03-25T00:53:35;98364.75;;;8.76;64.96
6506;BME280;3286;49.858;8.768;2023-03-25T00:56:03;98350.06;;;9.24;63.55
6506;BME280;3286;49.858;8.768;2023-03-25T00:58:30;98355.34;;;9.49;63.09
6506;BME280;3286;49.858;8.768;2023-03-25T01:00:58;98346.13;;;9.45;62.80
6506;BME280;3286;49.858;8.768;2023-03-25T01:03:26;98340.53;;;9.32;63.01
6506;BME280;3286;49.858;8.768;2023-03-25T01:05:54;98330.31;;;9.28;63.71
6506;BME280;3286;49.858;8.768;2023-03-25T01:08:22;98328.34;;;9.64;62.41
6506;BME280;3286;49.858;8.768;2023-03-25T01:10:51;98347.91;;;9.94;61.52
6506;BME280;3286;49.858;8.768;2023-03-25T01:13:18;98343.63;;;9.77;61.02
6506;BME280;3286;49.858;8.768;2023-03-25T01:15:46;98345.31;;;9.45;61.69
6506;BME280;3286;49.858;8.768;2023-03-25T01:18:14;98344.16;;;9.39;62.08
6506;BME280;3286;49.858;8.768;2023-03-25T01:20:41;98340.03;;;9.69;60.41
6506;BME280;3286;49.858;8.768;2023-03-25T01:23:08;98331.78;;;9.31;61.38
6506;BME280;3286;49.858;8.768;2023-03-25T01:25:36;98333.28;;;9.75;59.97
6506;BME280;3286;49.858;8.768;2023-03-25T01:28:03;98339.38;;;9.51;60.10
6506;BME280;3286;49.858;8.768;2023-03-25T01:30:30;98335.75;;;9.52;60.34
6506;BME280;3286;49.858;8.768;2023-03-25T01:32:57;98331.78;;;9.73;58.79
6506;BME280;3286;49.858;8.768;2023-03-25T01:35:25;98334.59;;;9.54;59.41
6506;BME280;3286;49.858;8.768;2023-03-25T01:37:52;98334.78;;;9.45;59.64
6506;BME280;3286;49.858;8.768;2023-03-25T01:40:21;98332.56;;;9.07;61.86
6506;BME280;3286;49.858;8.768;2023-03-25T01:42:48;98343.16;;;9.81;59.50
6506;BME280;3286;49.858;8.768;2023-03-25T01:45:19;98335.25;;;9.48;59.74
6506;BME280;3286;49.858;8.768;2023-03-25T01:47:48;98329.75;;;10.08;58.09
6506;BME280;3286;49.858;8.768;2023-03-25T01:50:17;98327.66;;;9.20;60.63
6506;BME280;3286;49.858;8.768;2023-03-25T01:52:50;98320.06;;;9.59;58.88
6506;BME280;3286;49.858;8.768;2023-03-25T01:55:17;98322.06;;;9.48;59.60
6506;BME280;3286;49.858;8.768;2023-03-25T01:57:46;98319.63;;;9.38;57.64
6506;BME280;3286;49.858;8.768;2023-03-25T02:00:14;98316.28;;;9.69;58.33
6506;BME280;3286;49.858;8.768;2023-03-25T02:02:43;98319.63;;;9.38;58.49
6506;BME280;3286;49.858;8.768;2023-03-25T02:05:16;98314.63;;;9.68;58.14
6506;BME280;3286;49.858;8.768;2023-03-25T02:07:44;98318.75;;;9.79;59.25
6506;BME280;3286;49.858;8.768;2023-03-25T02:10:14;98320.41;;;10.45;57.04
6506;BME280;3286;49.858;8.768;2023-03-25T02:12:41;98318.13;;;9.69;60.56
6506;BME280;3286;49.858;8.768;2023-03-25T02:15:10;98319.75;;;9.37;61.92
6506;BME280;3286;49.858;8.768;2023-03-25T02:17:47;98327.81;;;9.02;64.12
6506;BME280;3286;49.858;8.768;2023-03-25T02:20:41;98322.41;;;9.37;62.91
6506;BME280;3286;49.858;8.768;2023-03-25T02:26:26;98320.81;;;10.17;60.52
6506;BME280;3286;49.858;8.768;2023-03-25T02:29:04;98326.50;;;9.23;63.99
6506;BME280;3286;49.858;8.768;2023-03-25T02:31:49;98326.44;;;8.81;65.43
6506;BME280;3286;49.858;8.768;2023-03-25T02:34:54;98311.34;;;9.25;64.02
6506;BME280;3286;49.858;8.768;2023-03-25T02:37:47;98306.25;;;9.23;63.90
6506;BME280;3286;49.858;8.768;2023-03-25T02:40:17;98308.38;;;9.03;64.13
6506;BME280;3286;49.858;8.768;2023-03-25T02:42:49;98300.47;;;9.28;63.26
6506;BME280;3286;49.858;8.768;2023-03-25T02:45:21;98303.13;;;9.36;62.42
6506;BME280;3286;49.858;8.768;2023-03-25T02:47:53;98311.50;;;9.56;62.03
6506;BME280;3286;49.858;8.768;2023-03-25T02:50:26;98316.13;;;9.38;61.51
6506;BME280;3286;49.858;8.768;2023-03-25T02:52:59;98324.56;;;9.41;61.31
6506;BME280;3286;49.858;8.768;2023-03-25T02:55:27;98334.75;;;9.20;61.27
6506;BME280;3286;49.858;8.768;2023-03-25T02:57:56;98334.13;;;8.66;61.83
6506;BME280;3286;49.858;8.768;2023-03-25T03:00:26;98338.22;;;8.34;63.60
6506;BME280;3286;49.858;8.768;2023-03-25T03:02:55;98337.41;;;8.68;61.78
6506;BME280;3286;49.858;8.768;2023-03-25T03:05:26;98337.19;;;8.53;63.22
6506;BME280;3286;49.858;8.768;2023-03-25T03:08:06;98338.34;;;9.10;60.91
6506;BME280;3286;49.858;8.768;2023-03-25T03:10:39;98341.22;;;8.66;61.95
6506;BME280;3286;49.858;8.768;2023-03-25T03:13:19;98336.88;;;8.30;62.14
6506;BME280;3286;49.858;8.768;2023-03-25T03:15:53;98339.09;;;8.08;62.82
6506;BME280;3286;49.858;8.768;2023-03-25T03:18:30;98337.59;;;8.67;61.28
6506;BME280;3286;49.858;8.768;2023-03-25T03:21:07;98336.06;;;8.21;62.63
6506;BME280;3286;49.858;8.768;2023-03-25T03:23:45;98326.50;;;8.20;62.34
6506;BME280;3286;49.858;8.768;2023-03-25T03:26:21;98325.25;;;8.33;62.37
6506;BME280;3286;49.858;8.768;2023-03-25T03:28:53;98323.69;;;8.22;62.62
6506;BME280;3286;49.858;8.768;2023-03-25T03:31:26;98335.13;;;8.39;61.65
6506;BME280;3286;49.858;8.768;2023-03-25T03:33:56;98332.31;;;8.67;61.12
6506;BME280;3286;49.858;8.768;2023-03-25T03:36:29;98326.16;;;8.50;61.40
6506;BME280;3286;49.858;8.768;2023-03-25T03:39:01;98315.78;;;8.14;61.77
6506;BME280;3286;49.858;8.768;2023-03-25T03:41:32;98328.25;;;8.11;62.33
6506;BME280;3286;49.858;8.768;2023-03-25T03:44:02;98334.66;;;8.09;62.49
6506;BME280;3286;49.858;8.768;2023-03-25T03:46:32;98332.25;;;8.24;62.69
6506;BME280;3286;49.858;8.768;2023-03-25T03:49:06;98324.78;;;8.37;62.24
6506;BME280;3286;49.858;8.768;2023-03-25T03:51:36;98338.41;;;8.67;60.92
6506;BME280;3286;49.858;8.768;2023-03-25T03:54:08;98335.50;;;8.87;60.17
6506;BME280;3286;49.858;8.768;2023-03-25T03:56:41;98318.66;;;8.29;61.28
6506;BME280;3286;49.858;8.768;2023-03-25T03:59:13;98324.59;;;8.39;60.85
6506;BME280;3286;49.858;8.768;2023-03-25T04:01:45;98327.66;;;8.26;61.51
6506;BME280;3286;49.858;8.768;2023-03-25T04:04:14;98326.56;;;8.02;62.03
6506;BME280;3286;49.858;8.768;2023-03-25T04:06:44;98333.09;;;8.24;61.59
6506;BME280;3286;49.858;8.768;2023-03-25T04:09:18;98335.66;;;8.43;60.56
6506;BME280;3286;49.858;8.768;2023-03-25T04:11:54;98332.06;;;8.95;59.89
6506;BME280;3286;49.858;8.768;2023-03-25T04:14:21;98330.63;;;8.23;61.12
6506;BME280;3286;49.858;8.768;2023-03-25T04:16:48;98330.00;;;8.64;60.43
6506;BME280;3286;49.858;8.768;2023-03-25T04:19:17;98322.94;;;8.73;59.61
6506;BME280;3286;49.858;8.768;2023-03-25T04:21:44;98321.34;;;8.80;59.68
6506;BME280;3286;49.858;8.768;2023-03-25T04:24:13;98326.25;;;8.40;59.46
6506;BME280;3286;49.858;8.768;2023-03-25T04:26:40;98336.28;;;8.36;60.44
6506;BME280;3286;49.858;8.768;2023-03-25T04:29:08;98337.22;;;8.01;60.95
6506;BME280;3286;49.858;8.768;2023-03-25T04:31:35;98339.50;;;8.22;60.31
6506;BME280;3286;49.858;8.768;2023-03-25T04:34:02;98346.38;;;8.49;59.63
6506;BME280;3286;49.858;8.768;2023-03-25T04:36:29;98348.78;;;8.69;58.04
6506;BME280;3286;49.858;8.768;2023-03-25T04:38:58;98346.25;;;8.51;59.83
6506;BME280;3286;49.858;8.768;2023-03-25T04:41:26;98360.28;;;8.60;58.67
6506;BME280;3286;49.858;8.768;2023-03-25T04:43:53;98368.88;;;8.78;58.71
6506;BME280;3286;49.858;8.768;2023-03-25T04:46:20;98371.31;;;8.72;57.91
6506;BME280;3286;49.858;8.768;2023-03-25T04:48:46;98366.81;;;8.55;58.81
6506;BME280;3286;49.858;8.768;2023-03-25T04:51:14;98363.09;;;9.67;56.01
6506;BME280;3286;49.858;8.768;2023-03-25T04:53:41;98365.41;;;9.46;56.09
6506;BME280;3286;49.858;8.768;2023-03-25T04:56:11;98376.03;;;8.94;57.47
6506;BME280;3286;49.858;8.768;2023-03-25T04:58:42;98370.97;;;9.34;56.84
6506;BME280;3286;49.858;8.768;2023-03-25T05:01:18;98388.66;;;8.82;57.58
6506;BME280;3286;49.858;8.768;2023-03-25T05:03:45;98375.06;;;8.34;59.88
6506;BME280;3286;49.858;8.768;2023-03-25T05:06:14;98382.47;;;8.31;60.10
6506;BME280;3286;49.858;8.768;2023-03-25T05:08:41;98387.63;;;8.75;58.77
6506;BME280;3286;49.858;8.768;2023-03-25T05:11:08;98372.59;;;8.59;58.80
6506;BME280;3286;49.858;8.768;2023-03-25T05:13:34;98375.00;;;8.79;59.45
6506;BME280;3286;49.858;8.768;2023-03-25T05:16:03;98372.53;;;8.86;58.70
6506;BME280;3286;49.858;8.768;2023-03-25T05:18:29;98367.53;;;9.34;56.87
6506;BME280;3286;49.858;8.768;2023-03-25T05:20:56;98375.44;;;8.66;58.64
6506;BME280;3286;49.858;8.768;2023-03-25T05:23:25;98374.34;;;8.50;59.79
6506;BME280;3286;49.858;8.768;2023-03-25T05:25:51;98374.28;;;8.77;58.81
6506;BME280;3286;49.858;8.768;2023-03-25T05:28:18;98382.56;;;8.82;57.96
6506;BME280;3286;49.858;8.768;2023-03-25T05:30:45;98375.25;;;8.67;59.18
6506;BME280;3286;49.858;8.768;2023-03-25T05:33:15;98375.41;;;8.58;60.32
6506;BME280;3286;49.858;8.768;2023-03-25T05:35:44;98383.72;;;8.88;58.99
6506;BME280;3286;49.858;8.768;2023-03-25T05:38:11;98386.75;;;8.32;61.20
6506;BME280;3286;49.858;8.768;2023-03-25T05:40:42;98384.50;;;8.72;59.32
6506;BME280;3286;49.858;8.768;2023-03-25T05:43:10;98387.09;;;8.37;60.33
6506;BME280;3286;49.858;8.768;2023-03-25T05:45:37;98391.81;;;8.51;61.04
6506;BME280;3286;49.858;8.768;2023-03-25T05:48:04;98394.47;;;8.33;60.53
6506;BME280;3286;49.858;8.768;2023-03-25T05:50:32;98397.09;;;8.33;60.70
6506;BME280;3286;49.858;8.768;2023-03-25T05:52:58;98409.00;;;8.37;61.67
6506;BME280;3286;49.858;8.768;2023-03-25T05:55:25;98410.94;;;8.09;62.21
6506;BME280;3286;49.858;8.768;2023-03-25T05:57:52;98419.09;;;8.50;61.48
6506;BME280;3286;49.858;8.768;2023-03-25T06:00:19;98407.06;;;9.34;59.48
6506;BME280;3286;49.858;8.768;2023-03-25T06:02:47;98419.84;;;7.90;63.12
6506;BME280;3286;49.858;8.768;2023-03-25T06:05:15;98408.72;;;8.83;60.78
6506;BME280;3286;49.858;8.768;2023-03-25T06:07:44;98414.00;;;7.60;63.16
6506;BME280;3286;49.858;8.768;2023-03-25T06:10:12;98407.28;;;8.28;62.57
6506;BME280;3286;49.858;8.768;2023-03-25T06:12:41;98410.44;;;8.58;61.61
6506;BME280;3286;49.858;8.768;2023-03-25T06:15:11;98413.72;;;8.34;63.13
6506;BME280;3286;49.858;8.768;2023-03-25T06:17:38;98412.13;;;9.10;60.68
6506;BME280;3286;49.858;8.768;2023-03-25T06:20:06;98418.28;;;8.50;61.56
6506;BME280;3286;49.858;8.768;2023-03-25T06:22:37;98416.16;;;8.88;61.12
6506;BME280;3286;49.858;8.768;2023-03-25T06:25:05;98410.22;;;8.78;60.73
6506;BME280;3286;49.858;8.768;2023-03-25T06:27:32;98432.72;;;8.46;62.01
6506;BME280;3286;49.858;8.768;2023-03-25T06:30:05;98432.97;;;9.38;58.90
6506;BME280;3286;49.858;8.768;2023-03-25T06:32:32;98430.88;;;7.93;62.97
6506;BME280;3286;49.858;8.768;2023-03-25T06:34:59;98441.72;;;8.61;61.77
6506;BME280;3286;49.858;8.768;2023-03-25T06:37:26;98442.53;;;7.91;64.06
6506;BME280;3286;49.858;8.768;2023-03-25T06:39:53;98446.16;;;8.61;60.45
6506;BME280;3286;49.858;8.768;2023-03-25T06:42:22;98439.47;;;8.22;61.92
6506;BME280;3286;49.858;8.768;2023-03-25T06:44:49;98426.38;;;8.30;61.90
6506;BME280;3286;49.858;8.768;2023-03-25T06:47:15;98432.56;;;8.47;61.83
6506;BME280;3286;49.858;8.768;2023-03-25T06:49:42;98426.41;;;8.99;60.47
6506;BME280;3286;49.858;8.768;2023-03-25T06:52:09;98424.88;;;8.89;60.85
6506;BME280;3286;49.858;8.768;2023-03-25T06:54:36;98421.25;;;8.90;60.51
6506;BME280;3286;49.858;8.768;2023-03-25T06:57:02;98428.81;;;7.79;63.95
6506;BME280;3286;49.858;8.768;2023-03-25T06:59:31;98424.97;;;9.05;59.86
6506;BME280;3286;49.858;8.768;2023-03-25T07:01:57;98420.22;;;8.74;61.02
6506;BME280;3286;49.858;8.768;2023-03-25T07:04:24;98421.91;;;8.83;60.60
6506;BME280;3286;49.858;8.768;2023-03-25T07:06:51;98420.75;;;9.37;58.78
6506;BME280;3286;49.858;8.768;2023-03-25T07:09:17;98423.22;;;8.88;59.45
6506;BME280;3286;49.858;8.768;2023-03-25T07:11:44;98438.72;;;9.34;58.66
6506;BME280;3286;49.858;8.768;2023-03-25T07:14:11;98429.63;;;9.36;58.86
6506;BME280;3286;49.858;8.768;2023-03-25T07:16:39;98424.97;;;9.13;59.15
6506;BME280;3286;49.858;8.768;2023-03-25T07:19:05;98425.56;;;9.59;59.01
6506;BME280;3286;49.858;8.768;2023-03-25T07:21:32;98429.88;;;10.09;56.54
6506;BME280;3286;49.858;8.768;2023-03-25T07:23:59;98419.66;;;9.73;56.89
6506;BME280;3286;49.858;8.768;2023-03-25T07:26:25;98413.22;;;9.92;57.15
6506;BME280;3286;49.858;8.768;2023-03-25T07:28:52;98413.22;;;9.84;57.31
6506;BME280;3286;49.858;8.768;2023-03-25T07:31:18;98414.06;;;10.01;56.06
6506;BME280;3286;49.858;8.768;2023-03-25T07:33:46;98410.06;;;9.47;57.89
6506;BME280;3286;49.858;8.768;2023-03-25T07:36:13;98399.78;;;10.35;56.06
6506;BME280;3286;49.858;8.768;2023-03-25T07:38:40;98407.19;;;10.65;55.42
6506;BME280;3286;49.858;8.768;2023-03-25T07:41:08;98394.31;;;10.53;54.59
6506;BME280;3286;49.858;8.768;2023-03-25T07:43:35;98386.97;;;10.80;53.85
6506;BME280;3286;49.858;8.768;2023-03-25T07:46:01;98395.06;;;9.97;55.61
6506;BME280;3286;49.858;8.768;2023-03-25T07:48:28;98390.09;;;10.19;55.94
6506;BME280;3286;49.858;8.768;2023-03-25T07:50:56;98385.69;;;9.86;56.42
6506;BME280;3286;49.858;8.768;2023-03-25T07:53:23;98384.03;;;10.02;55.56
6506;BME280;3286;49.858;8.768;2023-03-25T07:55:50;98391.72;;;10.45;55.18
6506;BME280;3286;49.858;8.768;2023-03-25T07:58:17;98390.91;;;10.84;53.15
6506;BME280;3286;49.858;8.768;2023-03-25T08:00:44;98388.50;;;10.66;53.79
6506;BME280;3286;49.858;8.768;2023-03-25T08:03:11;98388.97;;;9.97;55.27
6506;BME280;3286;49.858;8.768;2023-03-25T08:05:43;98399.09;;;10.58;53.59
6506;BME280;3286;49.858;8.768;2023-03-25T08:08:12;98391.56;;;11.18;51.71
6506;BME280;3286;49.858;8.768;2023-03-25T08:10:40;98388.94;;;10.22;53.98
6506;BME280;3286;49.858;8.768;2023-03-25T08:13:08;98401.25;;;10.54;53.01
6506;BME280;3286;49.858;8.768;2023-03-25T08:15:34;98395.97;;;10.54;52.45
6506;BME280;3286;49.858;8.768;2023-03-25T08:18:01;98397.53;;;9.91;55.27
6506;BME280;3286;49.858;8.768;2023-03-25T08:20:29;98404.81;;;10.05;53.74
6506;BME280;3286;49.858;8.768;2023-03-25T08:22:56;98405.63;;;9.56;54.76
6506;BME280;3286;49.858;8.768;2023-03-25T08:25:24;98399.06;;;9.85;54.27
6506;BME280;3286;49.858;8.768;2023-03-25T08:27:52;98395.19;;;10.46;53.46
6506;BME280;3286;49.858;8.768;2023-03-25T08:30:18;98429.19;;;9.99;52.83
6506;BME280;3286;49.858;8.768;2023-03-25T08:32:45;98407.06;;;9.25;55.68
6506;BME280;3286;49.858;8.768;2023-03-25T08:35:18;98411.28;;;9.02;56.67
6506;BME280;3286;49.858;8.768;2023-03-25T08:37:45;98397.91;;;10.69;53.44
6506;BME280;3286;49.858;8.768;2023-03-25T08:40:12;98408.25;;;9.56;55.76
6506;BME280;3286;49.858;8.768;2023-03-25T08:42:42;98396.16;;;10.36;53.93
6506;BME280;3286;49.858;8.768;2023-03-25T08:45:10;98397.03;;;11.16;51.75
6506;BME280;3286;49.858;8.768;2023-03-25T08:47:36;98389.63;;;11.12;51.54
6506;BME280;3286;49.858;8.768;2023-03-25T08:50:04;98396.41;;;11.61;50.26
6506;BME280;3286;49.858;8.768;2023-03-25T08:52:31;98393.13;;;11.59;50.32
6506;BME280;3286;49.858;8.768;2023-03-25T08:54:57;98386.69;;;11.77;50.03
6506;BME280;3286;49.858;8.768;2023-03-25T08:57:24;98391.53;;;11.73;50.34
6506;BME280;3286;49.858;8.768;2023-03-25T08:59:52;98379.19;;;11.65;50.36
6506;BME280;3286;49.858;8.768;2023-03-25T09:02:19;98379.66;;;11.69;50.16
6506;BME280;3286;49.858;8.768;2023-03-25T09:04:46;98373.03;;;12.11;48.65
6506;BME280;3286;49.858;8.768;2023-03-25T09:07:13;98369.81;;;11.78;49.35
6506;BME280;3286;49.858;8.768;2023-03-25T09:09:40;98382.78;;;11.26;51.25
6506;BME280;3286;49.858;8.768;2023-03-25T09:12:07;98383.84;;;13.07;47.72
6506;BME280;3286;49.858;8.768;2023-03-25T09:14:34;98379.69;;;11.45;49.78
6506;BME280;3286;49.858;8.768;2023-03-25T09:17:02;98384.72;;;11.55;50.71
6506;BME280;3286;49.858;8.768;2023-03-25T09:19:30;98375.19;;;11.69;49.88
6506;BME280;3286;49.858;8.768;2023-03-25T09:21:57;98379.06;;;12.05;49.11
6506;BME280;3286;49.858;8.768;2023-03-25T09:24:23;98388.28;;;12.39;49.07
6506;BME280;3286;49.858;8.768;2023-03-25T09:26:50;98386.91;;;12.73;48.61
6506;BME280;3286;49.858;8.768;2023-03-25T09:29:17;98387.94;;;12.27;48.79
6506;BME280;3286;49.858;8.768;2023-03-25T09:31:43;98397.13;;;11.78;50.83
6506;BME280;3286;49.858;8.768;2023-03-25T09:34:11;98392.53;;;11.72;51.03
6506;BME280;3286;49.858;8.768;2023-03-25T09:36:38;98385.97;;;11.44;51.31
6506;BME280;3286;49.858;8.768;2023-03-25T09:39:04;98378.88;;;11.83;50.47
6506;BME280;3286;49.858;8.768;2023-03-25T09:41:45;98369.13;;;11.99;49.46
6506;BME280;3286;49.858;8.768;2023-03-25T09:44:21;98366.41;;;11.92;49.95
6506;BME280;3286;49.858;8.768;2023-03-25T09:46:49;98365.41;;;11.93;49.53
6506;BME280;3286;49.858;8.768;2023-03-25T09:49:19;98362.09;;;12.29;49.99
6506;BME280;3286;49.858;8.768;2023-03-25T09:51:50;98364.28;;;11.87;49.67
6506;BME280;3286;49.858;8.768;2023-03-25T09:54:21;98352.50;;;12.28;49.69
6506;BME280;3286;49.858;8.768;2023-03-25T09:56:50;98353.88;;;12.24;49.87
6506;BME280;3286;49.858;8.768;2023-03-25T09:59:20;98371.66;;;11.77;51.61
6506;BME280;3286;49.858;8.768;2023-03-25T10:01:54;98377.06;;;12.07;51.29
6506;BME280;3286;49.858;8.768;2023-03-25T10:04:43;98386.31;;;11.65;52.99
6506;BME280;3286;49.858;8.768;2023-03-25T10:07:25;98380.34;;;11.86;53.11
6506;BME280;3286;49.858;8.768;2023-03-25T10:09:59;98384.13;;;11.68;53.53
6506;BME280;3286;49.858;8.768;2023-03-25T10:12:34;98381.53;;;11.60;52.89
6506;BME280;3286;49.858;8.768;2023-03-25T10:15:14;98376.06;;;12.38;51.41
6506;BME280;3286;49.858;8.768;2023-03-25T10:17:48;98381.28;;;12.46;51.15
6506;BME280;3286;49.858;8.768;2023-03-25T10:20:33;98374.38;;;12.97;50.19
6506;BME280;3286;49.858;8.768;2023-03-25T10:23:09;98375.41;;;12.51;50.70
6506;BME280;3286;49.858;8.768;2023-03-25T10:25:43;98387.19;;;12.64;49.32
6506;BME280;3286;49.858;8.768;2023-03-25T10:28:15;98402.69;;;12.07;49.94
6506;BME280;3286;49.858;8.768;2023-03-25T10:30:45;98401.22;;;13.09;49.21
6506;BME280;3286;49.858;8.768;2023-03-25T10:33:20;98428.88;;;12.55;50.91
6506;BME280;3286;49.858;8.768;2023-03-25T10:35:55;98462.91;;;9.29;60.25
6506;BME280;3286;49.858;8.768;2023-03-25T10:38:24;98462.22;;;8.49;61.39
6506;BME280;3286;49.858;8.768;2023-03-25T10:40:57;98474.41;;;8.32;64.40
6506;BME280;3286;49.858;8.768;2023-03-25T10:43:30;98470.22;;;8.66;65.73
6506;BME280;3286;49.858;8.768;2023-03-25T10:46:02;98473.69;;;8.75;65.57
6506;BME280;3286;49.858;8.768;2023-03-25T10:48:32;98462.19;;;9.10;64.55
6506;BME280;3286;49.858;8.768;2023-03-25T10:51:04;98460.25;;;9.29;63.14
6506;BME280;3286;49.858;8.768;2023-03-25T10:53:32;98459.03;;;9.07;63.92
6506;BME280;3286;49.858;8.768;2023-03-25T10:56:02;98453.38;;;8.85;64.94
6506;BME280;3286;49.858;8.768;2023-03-25T10:58:31;98437.97;;;9.91;63.44
6506;BME280;3286;49.858;8.768;2023-03-25T11:01:06;98437.78;;;9.68;63.78
6506;BME280;3286;49.858;8.768;2023-03-25T11:03:38;98443.22;;;10.16;63.48
6506;BME280;3286;49.858;8.768;2023-03-25T11:06:16;98434.63;;;10.95;63.71
6506;BME280;3286;49.858;8.768;2023-03-25T11:09:14;98425.41;;;9.60;64.41
6506;BME280;3286;49.858;8.768;2023-03-25T11:11:42;98432.47;;;9.43;65.55
6506;BME280;3286;49.858;8.768;2023-03-25T11:14:10;98432.16;;;10.46;66.13
6506;BME280;3286;49.858;8.768;2023-03-25T11:16:40;98434.41;;;10.65;63.20
6506;BME280;3286;49.858;8.768;2023-03-25T11:19:15;98420.25;;;10.98;64.28
6506;BME280;3286;49.858;8.768;2023-03-25T11:21:47;98426.25;;;11.23;60.36
6506;BME280;3286;49.858;8.768;2023-03-25T11:24:17;98420.53;;;10.63;60.67
6506;BME280;3286;49.858;8.768;2023-03-25T11:26:45;98438.19;;;10.71;61.08
6506;BME280;3286;49.858;8.768;2023-03-25T11:29:16;98414.84;;;11.23;57.89
6506;BME280;3286;49.858;8.768;2023-03-25T11:31:54;98441.69;;;11.11;59.90
6506;BME280;3286;49.858;8.768;2023-03-25T11:34:22;98438.47;;;11.24;59.02
6506;BME280;3286;49.858;8.768;2023-03-25T11:36:53;98434.38;;;10.73;60.16
6506;BME280;3286;49.858;8.768;2023-03-25T11:39:31;98428.78;;;11.86;57.09
6506;BME280;3286;49.858;8.768;2023-03-25T11:41:59;98435.63;;;11.81;55.75
6506;BME280;3286;49.858;8.768;2023-03-25T11:44:28;98430.31;;;12.87;54.33
6506;BME280;3286;49.858;8.768;2023-03-25T11:46:57;98416.31;;;13.09;52.32
6506;BME280;3286;49.858;8.768;2023-03-25T11:49:26;98425.75;;;12.51;55.81
6506;BME280;3286;49.858;8.768;2023-03-25T11:52:02;98429.28;;;13.03;51.52
6506;BME280;3286;49.858;8.768;2023-03-25T11:54:32;98425.59;;;12.68;51.15
6506;BME280;3286;49.858;8.768;2023-03-25T11:57:02;98430.16;;;12.74;50.72
6506;BME280;3286;49.858;8.768;2023-03-25T11:59:35;98417.91;;;12.58;49.98
6506;BME280;3286;49.858;8.768;2023-03-25T12:02:17;98419.69;;;13.02;50.75
6506;BME280;3286;49.858;8.768;2023-03-25T12:04:55;98424.38;;;12.40;52.05
6506;BME280;3286;49.858;8.768;2023-03-25T12:07:23;98420.47;;;12.66;50.79
6506;BME280;3286;49.858;8.768;2023-03-25T12:09:53;98434.72;;;12.80;49.82
6506;BME280;3286;49.858;8.768;2023-03-25T12:12:38;98416.91;;;12.59;50.25
6506;BME280;3286;49.858;8.768;2023-03-25T12:15:20;98419.13;;;11.94;51.38
6506;BME280;3286;49.858;8.768;2023-03-25T12:18:02;98408.06;;;13.18;48.46
6506;BME280;3286;49.858;8.768;2023-03-25T12:20:36;98421.66;;;13.89;47.12
6506;BME280;3286;49.858;8.768;2023-03-25T12:23:19;98424.28;;;11.95;52.20
6506;BME280;3286;49.858;8.768;2023-03-25T12:25:53;98408.94;;;12.29;52.67
6506;BME280;3286;49.858;8.768;2023-03-25T12:28:43;98412.28;;;11.84;56.11
6506;BME280;3286;49.858;8.768;2023-03-25T12:31:25;98403.03;;;11.10;55.95
6506;BME280;3286;49.858;8.768;2023-03-25T12:34:04;98391.34;;;10.65;57.80
6506;BME280;3286;49.858;8.768;2023-03-25T12:36:41;98402.78;;;10.89;57.71
6506;BME280;3286;49.858;8.768;2023-03-25T12:39:26;98398.22;;;11.60;56.05
6506;BME280;3286;49.858;8.768;2023-03-25T12:42:03;98402.47;;;12.46;54.04
6506;BME280;3286;49.858;8.768;2023-03-25T12:44:46;98402.00;;;12.43;53.47
6506;BME280;3286;49.858;8.768;2023-03-25T12:47:22;98415.81;;;11.53;56.40
6506;BME280;3286;49.858;8.768;2023-03-25T12:50:00;98414.16;;;10.97;57.23
6506;BME280;3286;49.858;8.768;2023-03-25T12:52:41;98399.50;;;11.18;57.98
6506;BME280;3286;49.858;8.768;2023-03-25T12:55:24;98400.06;;;11.60;56.59
6506;BME280;3286;49.858;8.768;2023-03-25T12:58:09;98394.75;;;12.07;56.30
6506;BME280;3286;49.858;8.768;2023-03-25T13:00:46;98394.22;;;12.11;53.98
6506;BME280;3286;49.858;8.768;2023-03-25T13:03:34;98388.84;;;12.35;53.30
6506;BME280;3286;49.858;8.768;2023-03-25T13:06:15;98388.91;;;12.86;52.68
6506;BME280;3286;49.858;8.768;2023-03-25T13:08:47;98384.97;;;11.45;50.91
6506;BME280;3286;49.858;8.768;2023-03-25T13:11:21;98391.31;;;12.36;51.26
6506;BME280;3286;49.858;8.768;2023-03-25T13:13:52;98399.72;;;12.70;49.61
6506;BME280;3286;49.858;8.768;2023-03-25T13:16:22;98427.22;;;10.91;52.13
6506;BME280;3286;49.858;8.768;2023-03-25T13:18:55;98445.53;;;10.44;52.94
6506;BME280;3286;49.858;8.768;2023-03-25T13:21:27;98428.19;;;10.50;51.82
6506;BME280;3286;49.858;8.768;2023-03-25T13:23:58;98428.41;;;9.82;50.68
6506;BME280;3286;49.858;8.768;2023-03-25T13:26:28;98425.75;;;10.88;51.27
6506;BME280;3286;49.858;8.768;2023-03-25T13:28:58;98397.59;;;12.20;47.70
6506;BME280;3286;49.858;8.768;2023-03-25T13:31:30;98398.94;;;11.54;47.41
6506;BME280;3286;49.858;8.768;2023-03-25T13:34:05;98398.56;;;11.81;47.54
6506;BME280;3286;49.858;8.768;2023-03-25T13:36:38;98397.47;;;11.52;47.75
6506;BME280;3286;49.858;8.768;2023-03-25T13:39:12;98385.19;;;12.36;46.03
6506;BME280;3286;49.858;8.768;2023-03-25T13:41:43;98383.94;;;13.13;44.79
6506;BME280;3286;49.858;8.768;2023-03-25T13:44:15;98383.97;;;13.20;45.41
6506;BME280;3286;49.858;8.768;2023-03-25T13:46:47;98385.06;;;13.26;44.72
6506;BME280;3286;49.858;8.768;2023-03-25T13:49:19;98379.34;;;12.25;46.81